createdAt,value
2023-05-08T00:02:14.544Z,17.38
2023-05-08T00:04:43.072Z,17.55
2023-05-08T00:07:11.609Z,19.88
2023-05-08T00:09:39.943Z,19.23
2023-05-08T00:12:09.037Z,18.35
2023-05-08T00:14:38.788Z,15.77
2023-05-08T00:17:07.180Z,20.08
2023-05-08T00:19:35.579Z,19.17
2023-05-08T00:22:04.161Z,15.90
2023-05-08T00:24:32.744Z,19.02
2023-05-08T00:27:01.137Z,15.82
2023-05-08T00:29:29.487Z,17.30
2023-05-08T00:31:59.210Z,19.38
2023-05-08T00:34:27.725Z,16.00
2023-05-08T00:36:59.092Z,15.10
2023-05-08T00:39:27.554Z,16.40
2023-05-08T00:41:56.068Z,15.30
2023-05-08T00:44:24.427Z,16.13
2023-05-08T00:46:53.400Z,13.38
2023-05-08T00:49:23.600Z,15.30
2023-05-08T00:51:53.699Z,17.70
2023-05-08T00:54:22.958Z,15.60
2023-05-08T00:56:53.046Z,19.92
2023-05-08T00:59:22.300Z,14.20
2023-05-08T01:01:52.190Z,14.70
2023-05-08T01:04:22.472Z,16.92
2023-05-08T01:06:52.486Z,16.25
2023-05-08T01:09:20.823Z,14.30
2023-05-08T01:12:11.445Z,16.42
2023-05-08T01:14:56.410Z,16.73
2023-05-08T01:17:33.149Z,16.73
2023-05-08T01:20:11.164Z,16.70
2023-05-08T01:23:04.946Z,15.82
2023-05-08T01:25:59.298Z,15.85
2023-05-08T01:29:00.579Z,15.48
2023-05-08T01:31:44.743Z,19.63
2023-05-08T01:34:21.173Z,19.65
2023-05-08T01:36:54.282Z,22.05
2023-05-08T01:39:29.873Z,17.70
2023-05-08T01:42:03.784Z,18.85
2023-05-08T01:44:38.229Z,18.20
2023-05-08T01:47:10.739Z,20.98
2023-05-08T01:49:43.222Z,18.15
2023-05-08T01:52:19.179Z,17.77
2023-05-08T01:54:56.738Z,17.30
2023-05-08T01:57:27.745Z,16.95
2023-05-08T01:59:58.789Z,16.63
2023-05-08T02:02:29.593Z,19.08
2023-05-08T02:05:00.780Z,20.85
2023-05-08T02:07:29.559Z,19.80
2023-05-08T02:09:59.036Z,18.98
2023-05-08T02:12:29.092Z,17.65
2023-05-08T02:14:58.975Z,18.38
2023-05-08T02:17:29.022Z,16.17
2023-05-08T02:19:59.970Z,16.42
2023-05-08T02:22:29.594Z,14.95
2023-05-08T02:24:59.382Z,18.35
2023-05-08T02:27:29.991Z,19.48
2023-05-08T02:30:00.562Z,16.90
2023-05-08T02:32:31.571Z,18.85
2023-05-08T02:35:03.613Z,19.98
2023-05-08T02:37:35.661Z,19.48
2023-05-08T02:40:07.406Z,16.85
2023-05-08T02:42:36.188Z,20.48
2023-05-08T02:45:05.830Z,16.35
2023-05-08T02:47:43.292Z,18.63
2023-05-08T02:50:19.990Z,15.50
2023-05-08T02:52:51.936Z,15.98
2023-05-08T02:55:36.271Z,17.60
2023-05-08T02:58:11.531Z,18.42
2023-05-08T03:00:46.170Z,18.13
2023-05-08T03:03:21.012Z,20.92
2023-05-08T03:05:54.928Z,19.15
2023-05-08T03:08:28.713Z,18.10
2023-05-08T03:11:02.243Z,18.45
2023-05-08T03:13:35.413Z,18.52
2023-05-08T03:16:06.334Z,18.65
2023-05-08T03:18:37.896Z,17.83
2023-05-08T03:21:09.597Z,18.48
2023-05-08T03:23:40.215Z,20.60
2023-05-08T03:26:09.548Z,18.00
2023-05-08T03:28:40.160Z,21.05
2023-05-08T03:31:09.137Z,18.77
2023-05-08T03:33:40.116Z,18.73
2023-05-08T03:36:10.375Z,18.63
2023-05-08T03:38:39.090Z,18.33
2023-05-08T03:41:09.320Z,18.10
2023-05-08T03:43:39.398Z,19.75
2023-05-08T03:46:08.223Z,20.80
2023-05-08T03:48:38.746Z,20.05
2023-05-08T03:51:08.112Z,22.60
2023-05-08T03:53:40.918Z,19.65
2023-05-08T03:56:09.422Z,21.58
2023-05-08T03:58:43.197Z,22.92
2023-05-08T04:01:19.509Z,20.27
2023-05-08T04:06:42.027Z,21.27
2023-05-08T04:09:25.326Z,19.08
2023-05-08T04:12:03.208Z,21.80
2023-05-08T04:14:38.752Z,21.75
2023-05-08T04:17:10.832Z,23.38
2023-05-08T04:19:44.134Z,21.13
2023-05-08T04:22:14.036Z,20.20
2023-05-08T04:24:46.686Z,18.77
2023-05-08T04:27:17.341Z,20.90
2023-05-08T04:29:46.317Z,25.27
2023-05-08T04:32:15.529Z,22.73
2023-05-08T04:34:44.136Z,23.08
2023-05-08T04:37:25.702Z,21.08
2023-05-08T04:39:55.966Z,23.30
2023-05-08T04:42:25.982Z,21.65
2023-05-08T04:44:56.148Z,22.08
2023-05-08T04:47:24.694Z,21.50
2023-05-08T04:49:53.284Z,22.27
2023-05-08T04:52:21.659Z,21.40
2023-05-08T04:54:50.363Z,20.23
2023-05-08T04:57:20.594Z,21.60
2023-05-08T04:59:49.776Z,18.15
2023-05-08T05:02:18.394Z,20.70
2023-05-08T05:04:48.366Z,20.52
2023-05-08T05:07:17.334Z,18.65
2023-05-08T05:09:45.980Z,21.48
2023-05-08T05:12:14.367Z,19.20
2023-05-08T05:14:44.172Z,19.15
2023-05-08T05:17:12.892Z,18.77
2023-05-08T05:19:41.464Z,22.02
2023-05-08T05:22:10.179Z,16.77
2023-05-08T05:24:39.754Z,18.63
2023-05-08T05:27:08.210Z,18.15
2023-05-08T05:29:36.927Z,17.38
2023-05-08T05:32:09.086Z,21.02
2023-05-08T05:34:37.540Z,17.35
2023-05-08T05:37:05.906Z,17.85
2023-05-08T05:39:35.751Z,19.70
2023-05-08T05:42:04.372Z,18.08
2023-05-08T05:44:33.076Z,18.20
2023-05-08T05:47:01.815Z,23.02
2023-05-08T05:49:31.844Z,23.13
2023-05-08T05:52:00.305Z,23.92
2023-05-08T05:54:29.192Z,21.83
2023-05-08T05:56:57.943Z,19.98
2023-05-08T05:59:26.379Z,20.45
2023-05-08T06:06:09.959Z,21.33
2023-05-08T06:08:38.454Z,14.70
2023-05-08T06:11:06.851Z,22.10
2023-05-08T06:13:35.507Z,27.13
2023-05-08T06:16:03.966Z,25.40
2023-05-08T06:18:32.299Z,24.48
2023-05-08T06:21:01.661Z,22.42
2023-05-08T06:23:31.665Z,23.42
2023-05-08T06:26:00.337Z,24.35
2023-05-08T06:28:28.847Z,24.73
2023-05-08T06:30:59.631Z,26.58
2023-05-08T06:33:28.055Z,24.15
2023-05-08T06:36:03.799Z,22.35
2023-05-08T06:38:33.617Z,22.35
2023-05-08T06:41:02.074Z,23.52
2023-05-08T06:43:30.994Z,25.98
2023-05-08T06:45:59.420Z,26.70
2023-05-08T06:48:29.133Z,30.05
2023-05-08T06:50:59.293Z,25.60
2023-05-08T06:53:27.700Z,28.02
2023-05-08T06:55:58.700Z,27.77
2023-05-08T06:58:27.180Z,27.45
2023-05-08T07:00:55.842Z,23.95
2023-05-08T07:03:25.537Z,28.38
2023-05-08T07:05:53.882Z,29.33
2023-05-08T07:08:22.242Z,27.23
2023-05-08T07:10:50.754Z,29.08
2023-05-08T07:13:26.328Z,26.88
2023-05-08T07:15:55.262Z,28.88
2023-05-08T07:18:23.957Z,27.27
2023-05-08T07:20:52.486Z,28.52
2023-05-08T07:23:21.590Z,27.15
2023-05-08T07:25:50.324Z,26.45
2023-05-08T07:28:18.645Z,28.85
2023-05-08T07:30:48.617Z,29.75
2023-05-08T07:33:17.216Z,30.05
2023-05-08T07:35:45.813Z,32.90
2023-05-08T07:38:14.178Z,33.20
2023-05-08T07:40:42.651Z,31.50
2023-05-08T07:43:11.203Z,28.65
2023-05-08T07:45:39.564Z,30.55
2023-05-08T07:48:09.990Z,28.17
2023-05-08T07:51:49.049Z,30.20
2023-05-08T07:54:17.447Z,26.92
2023-05-08T07:56:45.835Z,26.58
2023-05-08T07:59:14.189Z,32.00
2023-05-08T08:01:47.170Z,27.23
2023-05-08T08:04:17.272Z,24.80
2023-05-08T08:06:45.674Z,25.23
2023-05-08T08:09:14.061Z,23.67
2023-05-08T08:11:49.644Z,28.38
2023-05-08T08:14:19.402Z,29.77
2023-05-08T08:16:47.910Z,30.02
2023-05-08T08:19:17.796Z,29.63
2023-05-08T08:21:46.752Z,34.97
2023-05-08T08:24:15.120Z,30.45
2023-05-08T08:26:43.756Z,31.60
2023-05-08T08:29:12.923Z,30.33
2023-05-08T08:31:41.696Z,30.77
2023-05-08T08:34:10.605Z,28.02
2023-05-08T08:36:40.603Z,26.83
2023-05-08T08:39:11.249Z,27.00
2023-05-08T08:41:41.268Z,27.30
2023-05-08T08:44:09.606Z,31.52
2023-05-08T08:46:45.841Z,31.55
2023-05-08T08:49:18.677Z,34.65
2023-05-08T08:51:53.578Z,29.95
2023-05-08T08:54:25.259Z,34.03
2023-05-08T08:56:54.702Z,35.42
2023-05-08T08:59:25.560Z,32.95
2023-05-08T09:01:57.884Z,30.35
2023-05-08T09:04:27.703Z,32.97
2023-05-08T09:07:02.732Z,32.03
2023-05-08T09:09:31.341Z,34.40
2023-05-08T09:11:59.661Z,31.95
2023-05-08T09:14:28.112Z,31.65
2023-05-08T09:16:56.478Z,30.35
2023-05-08T09:19:37.511Z,28.75
2023-05-08T09:22:09.209Z,26.80
2023-05-08T09:27:45.867Z,21.30
2023-05-08T09:30:15.356Z,22.13
2023-05-08T09:32:45.267Z,23.83
2023-05-08T09:35:18.739Z,21.20
2023-05-08T09:37:50.163Z,20.58
2023-05-08T09:40:20.724Z,21.77
2023-05-08T09:42:51.071Z,20.20
2023-05-08T09:45:31.353Z,20.45
2023-05-08T09:47:59.976Z,22.48
2023-05-08T09:50:30.032Z,19.38
2023-05-08T09:52:58.534Z,21.48
2023-05-08T09:55:27.100Z,21.23
2023-05-08T09:57:57.938Z,22.63
2023-05-08T10:00:27.326Z,20.25
2023-05-08T10:02:57.902Z,22.88
2023-05-08T10:05:33.332Z,21.05
2023-05-08T10:08:20.009Z,26.08
2023-05-08T10:10:48.580Z,21.42
2023-05-08T10:13:17.047Z,23.15
2023-05-08T10:15:46.158Z,23.23
2023-05-08T10:18:18.388Z,22.42
2023-05-08T10:20:49.689Z,17.95
2023-05-08T10:23:20.317Z,22.35
2023-05-08T10:25:58.913Z,23.27
2023-05-08T10:28:38.292Z,26.60
2023-05-08T10:31:09.232Z,24.75
2023-05-08T10:33:52.292Z,26.25
2023-05-08T10:36:21.591Z,24.20
2023-05-08T10:38:51.865Z,26.48
2023-05-08T10:41:20.840Z,25.08
2023-05-08T10:43:52.962Z,24.95
2023-05-08T10:46:26.799Z,24.13
2023-05-08T10:49:04.276Z,26.33
2023-05-08T10:51:45.277Z,21.95
2023-05-08T10:54:25.201Z,26.08
2023-05-08T10:57:07.504Z,26.05
2023-05-08T10:59:40.016Z,24.85
2023-05-08T11:02:09.382Z,25.15
2023-05-08T11:04:38.339Z,23.15
2023-05-08T11:07:06.909Z,21.88
2023-05-08T11:09:48.638Z,25.08
2023-05-08T11:12:24.912Z,22.70
2023-05-08T11:15:00.879Z,23.20
2023-05-08T11:17:29.462Z,24.45
2023-05-08T11:20:00.959Z,23.52
2023-05-08T11:22:32.656Z,24.17
2023-05-08T11:25:07.628Z,24.77
2023-05-08T11:27:47.780Z,21.05
2023-05-08T11:30:20.005Z,23.30
2023-05-08T11:33:15.231Z,20.98
2023-05-08T11:35:48.351Z,19.73
2023-05-08T11:38:19.326Z,21.27
2023-05-08T11:40:58.047Z,23.35
2023-05-08T11:43:32.265Z,20.13
2023-05-08T11:46:04.371Z,21.60
2023-05-08T11:48:33.447Z,20.52
2023-05-08T11:51:02.143Z,16.83
2023-05-08T11:53:31.442Z,19.60
2023-05-08T11:56:01.600Z,19.88
2023-05-08T11:58:30.887Z,20.30
2023-05-08T12:00:59.297Z,18.85
2023-05-08T12:03:27.872Z,21.20
2023-05-08T12:05:58.057Z,19.80
2023-05-08T12:08:27.180Z,20.70
2023-05-08T12:10:57.617Z,24.63
2023-05-08T12:13:29.126Z,24.70
2023-05-08T12:15:59.714Z,24.98
2023-05-08T12:18:30.792Z,25.25
2023-05-08T12:21:01.246Z,25.75
2023-05-08T12:23:30.890Z,26.55
2023-05-08T12:26:00.442Z,26.95
2023-05-08T12:28:36.205Z,31.80
2023-05-08T12:31:07.293Z,30.15
2023-05-08T12:33:35.895Z,27.30
2023-05-08T12:36:06.272Z,25.50
2023-05-08T12:38:34.652Z,27.58
2023-05-08T12:41:12.194Z,29.25
2023-05-08T12:43:41.912Z,27.83
2023-05-08T12:46:14.288Z,25.85
2023-05-08T12:48:42.748Z,28.00
2023-05-08T12:51:12.675Z,25.85
2023-05-08T12:53:41.151Z,25.73
2023-05-08T12:56:09.654Z,25.55
2023-05-08T12:58:39.246Z,26.52
2023-05-08T13:01:16.193Z,28.92
2023-05-08T13:03:47.221Z,26.73
2023-05-08T13:08:55.363Z,28.30
2023-05-08T13:11:31.590Z,23.88
2023-05-08T13:14:00.126Z,21.65
2023-05-08T13:16:30.151Z,21.65
2023-05-08T13:18:58.607Z,20.55
2023-05-08T13:21:28.321Z,20.77
2023-05-08T13:24:01.433Z,21.20
2023-05-08T13:26:29.856Z,22.38
2023-05-08T13:28:58.573Z,20.63
2023-05-08T13:31:27.268Z,17.27
2023-05-08T13:34:00.187Z,19.27
2023-05-08T13:36:28.974Z,18.98
2023-05-08T13:38:57.432Z,19.20
2023-05-08T13:41:27.149Z,16.52
2023-05-08T13:43:55.533Z,16.80
2023-05-08T13:46:24.829Z,15.23
2023-05-08T13:48:55.924Z,15.15
2023-05-08T13:51:26.502Z,14.02
2023-05-08T13:53:54.840Z,11.98
2023-05-08T13:56:29.882Z,13.57
2023-05-08T13:58:59.366Z,13.02
2023-05-08T14:01:28.461Z,13.32
2023-05-08T14:03:56.920Z,13.30
2023-05-08T14:06:26.812Z,13.02
2023-05-08T14:08:56.907Z,14.82
2023-05-08T14:11:27.130Z,13.23
2023-05-08T14:13:55.611Z,12.57
2023-05-08T14:16:24.359Z,14.60
2023-05-08T14:18:52.789Z,14.68
2023-05-08T14:21:21.194Z,13.80
2023-05-08T14:23:52.315Z,13.02
2023-05-08T14:26:21.120Z,11.73
2023-05-08T14:28:49.744Z,13.32
2023-05-08T14:31:20.928Z,12.38
2023-05-08T14:33:50.577Z,12.02
2023-05-08T14:36:18.992Z,13.00
2023-05-08T14:38:47.430Z,12.05
2023-05-08T14:41:17.296Z,12.05
2023-05-08T14:43:46.950Z,11.95
2023-05-08T14:46:18.431Z,12.18
2023-05-08T14:48:46.917Z,9.98
2023-05-08T14:51:15.301Z,10.23
2023-05-08T14:53:44.034Z,10.27
2023-05-08T14:56:13.720Z,9.85
2023-05-08T14:58:43.863Z,11.77
2023-05-08T15:01:13.823Z,10.45
2023-05-08T15:03:42.410Z,8.27
2023-05-08T15:06:10.989Z,10.55
2023-05-08T15:08:39.455Z,12.73
2023-05-08T15:11:07.900Z,14.85
2023-05-08T15:13:36.271Z,13.43
2023-05-08T15:16:06.619Z,14.60
2023-05-08T15:18:35.006Z,13.48
2023-05-08T15:21:03.521Z,13.10
2023-05-08T15:23:32.585Z,9.98
2023-05-08T15:26:01.219Z,8.70
2023-05-08T15:28:29.666Z,8.88
2023-05-08T15:30:58.229Z,9.75
2023-05-08T15:33:34.828Z,8.32
2023-05-08T15:36:03.144Z,5.78
2023-05-08T15:38:32.047Z,8.50
2023-05-08T15:41:00.651Z,5.55
2023-05-08T15:43:32.049Z,5.03
2023-05-08T15:46:00.461Z,8.20
2023-05-08T15:49:34.022Z,8.55
2023-05-08T15:52:02.368Z,6.93
2023-05-08T15:54:31.024Z,7.32
2023-05-08T15:57:00.390Z,6.82
2023-05-08T15:59:29.221Z,6.30
2023-05-08T16:01:57.615Z,5.78
2023-05-08T16:04:27.390Z,6.13
2023-05-08T16:06:56.528Z,4.70
2023-05-08T16:09:24.899Z,4.95
2023-05-08T16:11:54.565Z,4.55
2023-05-08T16:14:22.940Z,6.03
2023-05-08T16:16:51.267Z,6.07
2023-05-08T16:19:19.587Z,5.30
2023-05-08T16:21:49.299Z,5.78
2023-05-08T16:24:17.711Z,4.53
2023-05-08T16:26:46.161Z,4.47
2023-05-08T16:29:14.511Z,4.40
2023-05-08T16:31:43.091Z,7.10
2023-05-08T16:34:11.518Z,4.13
2023-05-08T16:36:41.391Z,4.55
2023-05-08T16:39:12.465Z,3.83
2023-05-08T16:41:40.846Z,4.53
2023-05-08T16:44:09.189Z,3.42
2023-05-08T16:46:37.957Z,2.50
2023-05-08T16:49:06.559Z,3.50
2023-05-08T16:51:34.972Z,4.03
2023-05-08T16:54:03.351Z,2.63
2023-05-08T16:56:33.115Z,2.65
2023-05-08T16:59:07.205Z,3.00
2023-05-08T17:01:35.828Z,3.20
2023-05-08T17:04:04.241Z,3.00
2023-05-08T17:06:32.909Z,3.40
2023-05-08T17:09:10.527Z,3.33
2023-05-08T17:11:40.384Z,3.05
2023-05-08T17:14:08.696Z,3.25
2023-05-08T17:16:37.113Z,3.42
2023-05-08T17:19:05.519Z,3.85
2023-05-08T17:21:33.872Z,6.35
2023-05-08T17:24:02.318Z,5.45
2023-05-08T17:26:33.059Z,6.38
2023-05-08T17:29:02.782Z,4.75
2023-05-08T17:31:31.516Z,5.15
2023-05-08T17:34:01.192Z,4.28
2023-05-08T17:36:29.879Z,3.40
2023-05-08T17:38:58.774Z,3.42
2023-05-08T17:41:27.309Z,5.25
2023-05-08T17:43:58.752Z,3.75
2023-05-08T17:46:28.789Z,3.88
2023-05-08T17:48:57.167Z,3.83
2023-05-08T17:51:25.660Z,3.33
2023-05-08T17:53:55.942Z,3.80
2023-05-08T17:56:25.870Z,5.75
2023-05-08T17:58:55.679Z,4.25
2023-05-08T18:01:24.709Z,3.92
2023-05-08T18:03:55.157Z,3.53
2023-05-08T18:06:23.519Z,3.80
2023-05-08T18:08:51.909Z,4.50
2023-05-08T18:11:22.240Z,5.05
2023-05-08T18:13:52.471Z,4.60
2023-05-08T18:16:23.184Z,4.40
2023-05-08T18:18:56.910Z,4.85
2023-05-08T18:21:28.641Z,5.30
2023-05-08T18:23:57.069Z,5.18
2023-05-08T18:26:25.471Z,3.85
2023-05-08T18:28:53.785Z,5.80
2023-05-08T18:31:22.222Z,4.05
2023-05-08T18:33:50.676Z,4.30
2023-05-08T18:36:19.086Z,3.88
2023-05-08T18:38:49.264Z,5.10
2023-05-08T18:41:18.365Z,3.63
2023-05-08T18:43:47.303Z,3.58
2023-05-08T18:46:17.575Z,4.90
2023-05-08T18:48:46.422Z,4.63
2023-05-08T18:51:14.784Z,4.75
2023-05-08T18:53:43.162Z,5.80
2023-05-08T18:56:13.144Z,4.22
2023-05-08T18:58:41.714Z,4.15
2023-05-08T19:01:10.186Z,3.97
2023-05-08T19:03:38.973Z,4.78
2023-05-08T19:06:07.445Z,3.92
2023-05-08T19:08:35.915Z,4.53
2023-05-08T19:11:04.284Z,3.10
2023-05-08T19:13:34.056Z,4.25
2023-05-08T19:16:02.665Z,3.72
2023-05-08T19:18:31.740Z,5.32
2023-05-08T19:21:00.333Z,4.65
2023-05-08T19:23:28.670Z,3.22
2023-05-08T19:25:57.082Z,4.47
2023-05-08T19:28:25.652Z,3.35
2023-05-08T19:30:55.396Z,3.80
2023-05-08T19:33:23.963Z,3.85
2023-05-08T19:35:52.349Z,3.00
2023-05-08T19:38:20.835Z,3.92
2023-05-08T19:40:57.048Z,3.40
2023-05-08T19:43:27.124Z,4.95
2023-05-08T19:45:57.355Z,4.95
2023-05-08T19:48:25.853Z,3.40
2023-05-08T19:50:55.170Z,4.93
2023-05-08T19:53:23.798Z,4.00
2023-05-08T19:55:52.252Z,4.75
2023-05-08T19:58:20.687Z,5.95
2023-05-08T20:00:51.648Z,4.78
2023-05-08T20:03:21.878Z,4.88
2023-05-08T20:05:52.725Z,4.65
2023-05-08T20:08:21.224Z,4.50
2023-05-08T20:10:49.876Z,5.03
2023-05-08T20:13:18.565Z,3.90
2023-05-08T20:15:47.166Z,5.78
2023-05-08T20:18:15.873Z,5.50
2023-05-08T20:20:46.129Z,5.95
2023-05-08T20:23:14.568Z,4.95
2023-05-08T20:25:46.116Z,4.28
2023-05-08T20:28:15.071Z,5.63
2023-05-08T20:30:43.684Z,4.55
2023-05-08T20:33:12.161Z,6.72
2023-05-08T20:35:40.930Z,4.28
2023-05-08T20:38:10.887Z,4.93
2023-05-08T20:40:40.179Z,5.05
2023-05-08T20:43:09.363Z,4.15
2023-05-08T20:45:38.052Z,4.20
2023-05-08T20:48:07.456Z,5.60
2023-05-08T20:50:36.157Z,6.20
2023-05-08T20:53:04.614Z,7.38
2023-05-08T20:55:34.447Z,12.50
2023-05-08T20:58:04.080Z,11.02
2023-05-08T21:00:34.295Z,21.85
2023-05-08T21:03:03.363Z,19.40
2023-05-08T21:05:31.819Z,21.95
2023-05-08T21:08:02.342Z,23.65
2023-05-08T21:10:31.336Z,24.13
2023-05-08T21:13:01.233Z,26.40
2023-05-08T21:15:29.642Z,25.33
2023-05-08T21:17:58.321Z,26.30
2023-05-08T21:20:26.744Z,28.60
2023-05-08T21:22:55.176Z,24.50
2023-05-08T21:25:23.573Z,28.65
2023-05-08T21:27:53.379Z,27.08
2023-05-08T21:30:24.944Z,27.30
2023-05-08T21:32:54.883Z,31.58
2023-05-08T21:35:23.448Z,29.33
2023-05-08T21:37:54.517Z,31.05
2023-05-08T21:40:24.295Z,31.83
2023-05-08T21:42:52.915Z,29.98
2023-05-08T21:45:21.379Z,30.50
2023-05-08T21:47:53.473Z,31.98
2023-05-08T21:50:22.093Z,34.95
2023-05-08T21:52:50.562Z,39.05
2023-05-08T21:55:20.280Z,34.05
2023-05-08T21:57:48.948Z,40.55
2023-05-08T22:00:18.214Z,41.80
2023-05-08T22:02:51.015Z,40.42
2023-05-08T22:05:19.533Z,43.20
2023-05-08T22:07:48.067Z,44.70
2023-05-08T22:10:16.527Z,46.75
2023-05-08T22:12:44.912Z,44.22
2023-05-08T22:15:28.544Z,41.40
2023-05-08T22:18:02.305Z,46.43
2023-05-08T22:20:30.807Z,40.42
2023-05-08T22:22:59.169Z,50.75
2023-05-08T22:25:27.869Z,44.72
2023-05-08T22:27:56.276Z,52.65
2023-05-08T22:30:24.941Z,52.55
2023-05-08T22:32:56.250Z,49.50
2023-05-08T22:35:28.215Z,46.28
2023-05-08T22:37:57.883Z,49.65
2023-05-08T22:40:27.145Z,56.03
2023-05-08T22:42:58.560Z,51.47
2023-05-08T22:45:27.822Z,54.65
2023-05-08T22:47:56.543Z,54.10
2023-05-08T22:50:26.372Z,46.70
2023-05-08T22:52:54.746Z,46.75
2023-05-08T22:55:23.350Z,46.75
2023-05-08T22:57:51.660Z,43.67
2023-05-08T23:00:20.685Z,41.25
2023-05-08T23:02:49.033Z,42.65
2023-05-08T23:05:17.580Z,45.50
2023-05-08T23:07:47.370Z,46.42
2023-05-08T23:10:15.887Z,50.03
2023-05-08T23:12:44.491Z,38.20
2023-05-08T23:15:14.210Z,49.13
2023-05-08T23:17:42.833Z,42.70
2023-05-08T23:20:11.936Z,45.15
2023-05-08T23:22:40.342Z,49.97
2023-05-08T23:25:12.858Z,49.50
2023-05-08T23:27:41.593Z,52.00
2023-05-08T23:30:12.819Z,47.75
2023-05-08T23:32:41.333Z,45.45
2023-05-08T23:35:09.885Z,37.63
2023-05-08T23:37:39.763Z,41.10
2023-05-08T23:40:09.895Z,40.08
2023-05-08T23:42:40.537Z,35.75
2023-05-08T23:45:10.895Z,38.22
2023-05-08T23:47:39.485Z,38.42
2023-05-08T23:50:08.599Z,32.83
2023-05-08T23:52:37.076Z,32.10
2023-05-08T23:55:06.368Z,38.42
2023-05-08T23:57:34.996Z,35.08
